Etusivu
METAR-TAF:

METAR-TAF

Lentoasemat :

Taylor County Airport

Medford, Wisconsin, Yhdysvallat

Leveyspiiri: 45-06-04N, Pituuspiiri: 090-18-12W, korkeus merenpinnasta: 448 m

Tämänhetkinen sää

Tämä raportti tehtiin 16 minuuttia sitten, kello 04.15 UTC
Tuuli 13 kn etelästä
Lämpötila -12°C
Kosteus 61%
Ilmanpaine 1021 hPa
Näkyvyys: 16.1 km
selkeää

METAR: KMDZ 130415Z AUTO 17013KT 10SM CLR M12/M18 A3014 RMK AO2 T11201179

Aika: 22:31 (04:31 UTC)


TAF: puuttuu

Säähavainnot ja -ennusteet yli 4000 lentoasemalta (METAR- ja TAF-raportit).

Käytössä olevat sääasemat on merkitty karttaan keltaisilla ja punaisilla pisteillä.

Aseta hiiri pisteen päälle nähdäksesi sääaseman nimen.

Klikkaa sitten nähdäksesi säähavainnot ja -ennusteet.

Kartan vaihtaminen: klikkaa mustalla rastilla varustettuja vihreitä pisteitä, niin voit zoomata sisään; viivalla varustettua vihreää pistettä, niin voit zoomata ulos tai vihreitä nuolia, niin pääset viereisille kartoille.


METAR-TAF: